sensor_id;sensor_type;location;lat;lon;timestamp;P1;durP1;ratioP1;P2;durP2;ratioP2
56363;SDS011;42261;52.094;4.326;2023-04-03T00:02:30;2.28;;;0.90;;
56363;SDS011;42261;52.094;4.326;2023-04-03T00:05:15;5.38;;;1.05;;
56363;SDS011;42261;52.094;4.326;2023-04-03T00:07:59;1.38;;;0.90;;
56363;SDS011;42261;52.094;4.326;2023-04-03T00:10:43;2.28;;;0.70;;
56363;SDS011;42261;52.094;4.326;2023-04-03T00:13:27;2.25;;;0.80;;
56363;SDS011;42261;52.094;4.326;2023-04-03T00:16:11;2.75;;;0.80;;
56363;SDS011;42261;52.094;4.326;2023-04-03T00:18:55;2.35;;;0.68;;
56363;SDS011;42261;52.094;4.326;2023-04-03T00:21:39;2.13;;;0.60;;
56363;SDS011;42261;52.094;4.326;2023-04-03T00:24:24;3.45;;;0.70;;
56363;SDS011;42261;52.094;4.326;2023-04-03T00:27:08;1.95;;;0.65;;
56363;SDS011;42261;52.094;4.326;2023-04-03T00:29:52;2.25;;;0.90;;
56363;SDS011;42261;52.094;4.326;2023-04-03T00:32:36;1.40;;;0.70;;
56363;SDS011;42261;52.094;4.326;2023-04-03T00:35:20;1.05;;;0.50;;
56363;SDS011;42261;52.094;4.326;2023-04-03T00:38:05;2.00;;;0.80;;
56363;SDS011;42261;52.094;4.326;2023-04-03T00:40:49;2.72;;;0.60;;
56363;SDS011;42261;52.094;4.326;2023-04-03T00:43:33;1.42;;;0.73;;
56363;SDS011;42261;52.094;4.326;2023-04-03T00:46:18;2.35;;;0.73;;
56363;SDS011;42261;52.094;4.326;2023-04-03T00:49:01;3.80;;;0.90;;
56363;SDS011;42261;52.094;4.326;2023-04-03T00:51:46;2.85;;;0.77;;
56363;SDS011;42261;52.094;4.326;2023-04-03T00:54:30;3.08;;;0.60;;
56363;SDS011;42261;52.094;4.326;2023-04-03T00:57:14;1.60;;;0.70;;
56363;SDS011;42261;52.094;4.326;2023-04-03T01:00:06;0.80;;;0.60;;
56363;SDS011;42261;52.094;4.326;2023-04-03T01:02:51;1.85;;;0.60;;
56363;SDS011;42261;52.094;4.326;2023-04-03T01:05:35;1.77;;;0.70;;
56363;SDS011;42261;52.094;4.326;2023-04-03T01:08:19;2.10;;;0.73;;
56363;SDS011;42261;52.094;4.326;2023-04-03T01:11:03;2.10;;;0.70;;
56363;SDS011;42261;52.094;4.326;2023-04-03T01:13:47;3.17;;;0.90;;
56363;SDS011;42261;52.094;4.326;2023-04-03T01:16:33;2.08;;;0.60;;
56363;SDS011;42261;52.094;4.326;2023-04-03T01:19:17;1.13;;;0.63;;
56363;SDS011;42261;52.094;4.326;2023-04-03T01:24:48;0.60;;;0.50;;
56363;SDS011;42261;52.094;4.326;2023-04-03T01:27:32;0.80;;;0.40;;
56363;SDS011;42261;52.094;4.326;2023-04-03T01:30:16;2.88;;;0.70;;
56363;SDS011;42261;52.094;4.326;2023-04-03T01:33:01;1.80;;;0.60;;
56363;SDS011;42261;52.094;4.326;2023-04-03T01:35:45;1.85;;;0.68;;
56363;SDS011;42261;52.094;4.326;2023-04-03T01:38:29;1.63;;;0.63;;
56363;SDS011;42261;52.094;4.326;2023-04-03T01:41:13;1.92;;;0.65;;
56363;SDS011;42261;52.094;4.326;2023-04-03T01:43:57;0.63;;;0.47;;
56363;SDS011;42261;52.094;4.326;2023-04-03T01:46:41;1.05;;;0.50;;
56363;SDS011;42261;52.094;4.326;2023-04-03T01:49:26;1.60;;;0.60;;
56363;SDS011;42261;52.094;4.326;2023-04-03T01:52:10;0.73;;;0.60;;
56363;SDS011;42261;52.094;4.326;2023-04-03T01:54:54;0.57;;;0.43;;
56363;SDS011;42261;52.094;4.326;2023-04-03T01:57:38;1.70;;;0.60;;
56363;SDS011;42261;52.094;4.326;2023-04-03T02:00:23;0.70;;;0.50;;
56363;SDS011;42261;52.094;4.326;2023-04-03T02:03:07;2.70;;;0.60;;
56363;SDS011;42261;52.094;4.326;2023-04-03T02:05:51;3.00;;;0.70;;
56363;SDS011;42261;52.094;4.326;2023-04-03T02:08:35;2.42;;;0.90;;
56363;SDS011;42261;52.094;4.326;2023-04-03T02:11:18;8.02;;;0.73;;
56363;SDS011;42261;52.094;4.326;2023-04-03T02:14:04;1.27;;;0.50;;
56363;SDS011;42261;52.094;4.326;2023-04-03T02:16:48;1.33;;;0.57;;
56363;SDS011;42261;52.094;4.326;2023-04-03T02:19:32;1.75;;;0.60;;
56363;SDS011;42261;52.094;4.326;2023-04-03T02:22:16;2.45;;;0.60;;
56363;SDS011;42261;52.094;4.326;2023-04-03T02:25:01;3.25;;;0.57;;
56363;SDS011;42261;52.094;4.326;2023-04-03T02:27:45;1.10;;;0.60;;
56363;SDS011;42261;52.094;4.326;2023-04-03T02:30:29;4.50;;;0.85;;
56363;SDS011;42261;52.094;4.326;2023-04-03T02:33:13;1.20;;;0.77;;
56363;SDS011;42261;52.094;4.326;2023-04-03T02:35:57;1.17;;;0.57;;
56363;SDS011;42261;52.094;4.326;2023-04-03T02:38:42;1.02;;;0.65;;
56363;SDS011;42261;52.094;4.326;2023-04-03T02:41:26;0.75;;;0.60;;
56363;SDS011;42261;52.094;4.326;2023-04-03T02:44:17;1.42;;;0.70;;
56363;SDS011;42261;52.094;4.326;2023-04-03T02:47:01;1.60;;;0.68;;
56363;SDS011;42261;52.094;4.326;2023-04-03T02:49:46;2.22;;;0.70;;
56363;SDS011;42261;52.094;4.326;2023-04-03T02:52:30;1.17;;;0.60;;
56363;SDS011;42261;52.094;4.326;2023-04-03T02:55:14;1.95;;;0.73;;
56363;SDS011;42261;52.094;4.326;2023-04-03T02:58:01;2.75;;;0.70;;
56363;SDS011;42261;52.094;4.326;2023-04-03T03:00:45;2.00;;;0.70;;
56363;SDS011;42261;52.094;4.326;2023-04-03T03:03:28;1.27;;;0.70;;
56363;SDS011;42261;52.094;4.326;2023-04-03T03:06:14;1.17;;;0.70;;
56363;SDS011;42261;52.094;4.326;2023-04-03T03:08:59;2.53;;;0.73;;
56363;SDS011;42261;52.094;4.326;2023-04-03T03:11:43;0.93;;;0.57;;
56363;SDS011;42261;52.094;4.326;2023-04-03T03:14:27;2.45;;;0.70;;
56363;SDS011;42261;52.094;4.326;2023-04-03T03:17:11;2.80;;;0.80;;
56363;SDS011;42261;52.094;4.326;2023-04-03T03:19:55;3.47;;;0.80;;
56363;SDS011;42261;52.094;4.326;2023-04-03T03:22:39;2.63;;;0.80;;
56363;SDS011;42261;52.094;4.326;2023-04-03T03:25:23;1.52;;;0.82;;
56363;SDS011;42261;52.094;4.326;2023-04-03T03:28:07;2.42;;;0.70;;
56363;SDS011;42261;52.094;4.326;2023-04-03T03:30:51;1.48;;;0.80;;
56363;SDS011;42261;52.094;4.326;2023-04-03T03:33:36;2.55;;;1.50;;
56363;SDS011;42261;52.094;4.326;2023-04-03T03:36:20;0.82;;;0.50;;
56363;SDS011;42261;52.094;4.326;2023-04-03T03:39:04;3.75;;;0.70;;
56363;SDS011;42261;52.094;4.326;2023-04-03T03:41:48;1.80;;;0.70;;
56363;SDS011;42261;52.094;4.326;2023-04-03T03:44:33;1.08;;;0.65;;
56363;SDS011;42261;52.094;4.326;2023-04-03T03:47:18;2.45;;;0.95;;
56363;SDS011;42261;52.094;4.326;2023-04-03T03:50:02;3.05;;;1.00;;
56363;SDS011;42261;52.094;4.326;2023-04-03T03:52:46;1.90;;;0.70;;
56363;SDS011;42261;52.094;4.326;2023-04-03T03:55:31;1.33;;;0.70;;
56363;SDS011;42261;52.094;4.326;2023-04-03T03:58:14;2.15;;;0.98;;
56363;SDS011;42261;52.094;4.326;2023-04-03T04:01:02;5.40;;;1.00;;
56363;SDS011;42261;52.094;4.326;2023-04-03T04:03:46;2.03;;;0.90;;
56363;SDS011;42261;52.094;4.326;2023-04-03T04:06:30;2.70;;;1.10;;
56363;SDS011;42261;52.094;4.326;2023-04-03T04:09:14;1.50;;;0.73;;
56363;SDS011;42261;52.094;4.326;2023-04-03T04:11:58;2.58;;;0.80;;
56363;SDS011;42261;52.094;4.326;2023-04-03T04:14:42;2.72;;;1.13;;
56363;SDS011;42261;52.094;4.326;2023-04-03T04:17:30;2.85;;;0.95;;
56363;SDS011;42261;52.094;4.326;2023-04-03T04:20:14;1.55;;;1.02;;
56363;SDS011;42261;52.094;4.326;2023-04-03T04:22:58;1.55;;;0.60;;
56363;SDS011;42261;52.094;4.326;2023-04-03T04:25:44;1.73;;;0.80;;
56363;SDS011;42261;52.094;4.326;2023-04-03T04:28:29;2.92;;;0.77;;
56363;SDS011;42261;52.094;4.326;2023-04-03T04:31:14;1.50;;;0.90;;
56363;SDS011;42261;52.094;4.326;2023-04-03T04:33:58;1.38;;;0.90;;
56363;SDS011;42261;52.094;4.326;2023-04-03T04:36:42;2.65;;;0.95;;
56363;SDS011;42261;52.094;4.326;2023-04-03T04:39:25;2.08;;;0.80;;
56363;SDS011;42261;52.094;4.326;2023-04-03T04:42:09;3.72;;;1.10;;
56363;SDS011;42261;52.094;4.326;2023-04-03T04:44:56;2.85;;;1.13;;
56363;SDS011;42261;52.094;4.326;2023-04-03T04:47:40;2.40;;;0.77;;
56363;SDS011;42261;52.094;4.326;2023-04-03T04:50:26;4.28;;;1.00;;
56363;SDS011;42261;52.094;4.326;2023-04-03T04:53:10;4.35;;;1.20;;
56363;SDS011;42261;52.094;4.326;2023-04-03T04:55:53;2.13;;;1.10;;
56363;SDS011;42261;52.094;4.326;2023-04-03T04:58:38;1.08;;;0.80;;
56363;SDS011;42261;52.094;4.326;2023-04-03T05:01:22;2.92;;;1.00;;
56363;SDS011;42261;52.094;4.326;2023-04-03T05:04:06;2.03;;;0.88;;
56363;SDS011;42261;52.094;4.326;2023-04-03T05:06:50;2.47;;;0.98;;
56363;SDS011;42261;52.094;4.326;2023-04-03T05:09:34;3.70;;;1.08;;
56363;SDS011;42261;52.094;4.326;2023-04-03T05:12:18;3.03;;;1.63;;
56363;SDS011;42261;52.094;4.326;2023-04-03T05:15:02;2.33;;;0.90;;
56363;SDS011;42261;52.094;4.326;2023-04-03T05:17:46;2.92;;;0.85;;
56363;SDS011;42261;52.094;4.326;2023-04-03T05:20:30;4.45;;;1.25;;
56363;SDS011;42261;52.094;4.326;2023-04-03T05:23:14;2.65;;;1.02;;
56363;SDS011;42261;52.094;4.326;2023-04-03T05:25:59;3.05;;;1.17;;
56363;SDS011;42261;52.094;4.326;2023-04-03T05:28:43;2.80;;;0.77;;
56363;SDS011;42261;52.094;4.326;2023-04-03T05:31:27;1.73;;;0.88;;
56363;SDS011;42261;52.094;4.326;2023-04-03T05:34:13;2.70;;;1.00;;
56363;SDS011;42261;52.094;4.326;2023-04-03T05:36:57;3.72;;;0.90;;
56363;SDS011;42261;52.094;4.326;2023-04-03T05:39:41;2.42;;;1.00;;
56363;SDS011;42261;52.094;4.326;2023-04-03T05:42:25;3.63;;;0.90;;
56363;SDS011;42261;52.094;4.326;2023-04-03T05:45:09;6.65;;;1.40;;
56363;SDS011;42261;52.094;4.326;2023-04-03T05:47:54;2.42;;;1.00;;
56363;SDS011;42261;52.094;4.326;2023-04-03T05:50:38;1.88;;;0.90;;
56363;SDS011;42261;52.094;4.326;2023-04-03T05:53:27;1.42;;;1.00;;
56363;SDS011;42261;52.094;4.326;2023-04-03T05:56:11;2.42;;;1.05;;
56363;SDS011;42261;52.094;4.326;2023-04-03T05:58:55;3.80;;;1.20;;
56363;SDS011;42261;52.094;4.326;2023-04-03T06:01:40;4.35;;;1.20;;
56363;SDS011;42261;52.094;4.326;2023-04-03T06:04:24;4.38;;;1.05;;
56363;SDS011;42261;52.094;4.326;2023-04-03T06:07:12;2.22;;;1.35;;
56363;SDS011;42261;52.094;4.326;2023-04-03T06:09:57;2.67;;;1.02;;
56363;SDS011;42261;52.094;4.326;2023-04-03T06:12:41;3.90;;;1.00;;
56363;SDS011;42261;52.094;4.326;2023-04-03T06:15:25;2.58;;;0.93;;
56363;SDS011;42261;52.094;4.326;2023-04-03T06:18:09;4.68;;;1.30;;
56363;SDS011;42261;52.094;4.326;2023-04-03T06:20:53;2.72;;;0.90;;
56363;SDS011;42261;52.094;4.326;2023-04-03T06:23:37;4.07;;;1.10;;
56363;SDS011;42261;52.094;4.326;2023-04-03T06:26:21;2.15;;;1.20;;
56363;SDS011;42261;52.094;4.326;2023-04-03T06:29:06;4.10;;;1.30;;
56363;SDS011;42261;52.094;4.326;2023-04-03T06:31:51;4.68;;;1.00;;
56363;SDS011;42261;52.094;4.326;2023-04-03T06:34:35;4.78;;;1.38;;
56363;SDS011;42261;52.094;4.326;2023-04-03T06:37:20;2.75;;;1.13;;
56363;SDS011;42261;52.094;4.326;2023-04-03T06:40:05;3.97;;;1.20;;
56363;SDS011;42261;52.094;4.326;2023-04-03T06:42:49;2.35;;;0.95;;
56363;SDS011;42261;52.094;4.326;2023-04-03T06:45:34;4.18;;;0.90;;
56363;SDS011;42261;52.094;4.326;2023-04-03T06:48:18;2.30;;;1.17;;
56363;SDS011;42261;52.094;4.326;2023-04-03T06:51:02;2.45;;;1.20;;
56363;SDS011;42261;52.094;4.326;2023-04-03T06:53:47;7.10;;;2.63;;
56363;SDS011;42261;52.094;4.326;2023-04-03T06:56:31;6.07;;;1.63;;
56363;SDS011;42261;52.094;4.326;2023-04-03T06:59:15;3.05;;;1.27;;
56363;SDS011;42261;52.094;4.326;2023-04-03T07:01:59;1.58;;;1.13;;
56363;SDS011;42261;52.094;4.326;2023-04-03T07:04:43;2.60;;;1.13;;
56363;SDS011;42261;52.094;4.326;2023-04-03T07:07:27;2.58;;;1.00;;
56363;SDS011;42261;52.094;4.326;2023-04-03T07:10:11;2.58;;;1.30;;
56363;SDS011;42261;52.094;4.326;2023-04-03T07:12:56;5.35;;;1.05;;
56363;SDS011;42261;52.094;4.326;2023-04-03T07:15:40;2.08;;;1.20;;
56363;SDS011;42261;52.094;4.326;2023-04-03T07:18:24;3.70;;;1.05;;
56363;SDS011;42261;52.094;4.326;2023-04-03T07:21:08;3.25;;;1.50;;
56363;SDS011;42261;52.094;4.326;2023-04-03T07:23:53;2.30;;;1.05;;
56363;SDS011;42261;52.094;4.326;2023-04-03T07:26:37;2.22;;;1.10;;
56363;SDS011;42261;52.094;4.326;2023-04-03T07:29:21;4.38;;;1.20;;
56363;SDS011;42261;52.094;4.326;2023-04-03T07:32:05;5.28;;;1.40;;
56363;SDS011;42261;52.094;4.326;2023-04-03T07:34:50;3.60;;;1.10;;
56363;SDS011;42261;52.094;4.326;2023-04-03T07:37:35;4.18;;;1.00;;
56363;SDS011;42261;52.094;4.326;2023-04-03T07:40:19;2.78;;;1.30;;
56363;SDS011;42261;52.094;4.326;2023-04-03T07:43:04;2.83;;;1.13;;
56363;SDS011;42261;52.094;4.326;2023-04-03T07:45:49;2.78;;;1.38;;
56363;SDS011;42261;52.094;4.326;2023-04-03T07:48:34;2.47;;;1.00;;
56363;SDS011;42261;52.094;4.326;2023-04-03T07:51:19;2.38;;;1.10;;
56363;SDS011;42261;52.094;4.326;2023-04-03T07:54:04;4.55;;;1.17;;
56363;SDS011;42261;52.094;4.326;2023-04-03T07:56:48;3.67;;;1.08;;
56363;SDS011;42261;52.094;4.326;2023-04-03T07:59:32;5.30;;;1.25;;
56363;SDS011;42261;52.094;4.326;2023-04-03T08:02:16;2.15;;;1.10;;
56363;SDS011;42261;52.094;4.326;2023-04-03T08:05:01;2.70;;;1.02;;
56363;SDS011;42261;52.094;4.326;2023-04-03T08:07:45;1.15;;;0.80;;
56363;SDS011;42261;52.094;4.326;2023-04-03T08:10:29;4.72;;;1.80;;
56363;SDS011;42261;52.094;4.326;2023-04-03T08:13:13;3.67;;;1.30;;
56363;SDS011;42261;52.094;4.326;2023-04-03T08:15:57;4.57;;;1.10;;
56363;SDS011;42261;52.094;4.326;2023-04-03T08:18:42;1.40;;;1.10;;
56363;SDS011;42261;52.094;4.326;2023-04-03T08:21:26;2.13;;;0.75;;
56363;SDS011;42261;52.094;4.326;2023-04-03T08:24:10;4.18;;;1.17;;
56363;SDS011;42261;52.094;4.326;2023-04-03T08:26:54;3.42;;;1.00;;
56363;SDS011;42261;52.094;4.326;2023-04-03T08:29:39;1.88;;;0.93;;
56363;SDS011;42261;52.094;4.326;2023-04-03T08:32:25;3.83;;;0.88;;
56363;SDS011;42261;52.094;4.326;2023-04-03T08:35:11;2.28;;;0.80;;
56363;SDS011;42261;52.094;4.326;2023-04-03T08:37:55;7.32;;;1.45;;
56363;SDS011;42261;52.094;4.326;2023-04-03T08:40:40;2.63;;;1.02;;
56363;SDS011;42261;52.094;4.326;2023-04-03T08:46:10;1.33;;;0.82;;
56363;SDS011;42261;52.094;4.326;2023-04-03T08:48:55;5.53;;;1.00;;
56363;SDS011;42261;52.094;4.326;2023-04-03T08:51:44;3.20;;;1.20;;
56363;SDS011;42261;52.094;4.326;2023-04-03T08:54:33;5.18;;;1.15;;
56363;SDS011;42261;52.094;4.326;2023-04-03T08:57:26;3.13;;;0.90;;
56363;SDS011;42261;52.094;4.326;2023-04-03T09:00:17;2.45;;;0.85;;
56363;SDS011;42261;52.094;4.326;2023-04-03T09:03:01;2.80;;;0.65;;
56363;SDS011;42261;52.094;4.326;2023-04-03T09:08:31;2.00;;;0.88;;
56363;SDS011;42261;52.094;4.326;2023-04-03T09:14:26;2.35;;;0.70;;
56363;SDS011;42261;52.094;4.326;2023-04-03T09:17:18;3.35;;;0.90;;
56363;SDS011;42261;52.094;4.326;2023-04-03T09:20:09;3.72;;;0.90;;
56363;SDS011;42261;52.094;4.326;2023-04-03T09:22:56;4.65;;;0.80;;
56363;SDS011;42261;52.094;4.326;2023-04-03T09:25:41;4.22;;;0.77;;
56363;SDS011;42261;52.094;4.326;2023-04-03T09:28:26;2.50;;;0.95;;
56363;SDS011;42261;52.094;4.326;2023-04-03T09:31:18;1.02;;;0.60;;
56363;SDS011;42261;52.094;4.326;2023-04-03T09:34:06;2.00;;;0.75;;
56363;SDS011;42261;52.094;4.326;2023-04-03T09:36:52;4.38;;;1.30;;
56363;SDS011;42261;52.094;4.326;2023-04-03T09:39:52;0.98;;;0.60;;
56363;SDS011;42261;52.094;4.326;2023-04-03T09:42:40;1.95;;;0.75;;
56363;SDS011;42261;52.094;4.326;2023-04-03T09:51:01;1.30;;;0.52;;
56363;SDS011;42261;52.094;4.326;2023-04-03T09:53:46;2.33;;;0.68;;
56363;SDS011;42261;52.094;4.326;2023-04-03T09:56:30;5.22;;;1.00;;
56363;SDS011;42261;52.094;4.326;2023-04-03T09:59:15;2.17;;;0.50;;
56363;SDS011;42261;52.094;4.326;2023-04-03T10:05:05;4.03;;;1.05;;
56363;SDS011;42261;52.094;4.326;2023-04-03T10:08:09;2.50;;;0.50;;
56363;SDS011;42261;52.094;4.326;2023-04-03T10:11:07;2.33;;;0.60;;
56363;SDS011;42261;52.094;4.326;2023-04-03T10:13:54;2.25;;;0.60;;
56363;SDS011;42261;52.094;4.326;2023-04-03T10:16:48;3.20;;;0.80;;
56363;SDS011;42261;52.094;4.326;2023-04-03T10:19:47;1.00;;;0.63;;
56363;SDS011;42261;52.094;4.326;2023-04-03T10:22:46;2.55;;;0.60;;
56363;SDS011;42261;52.094;4.326;2023-04-03T10:28:19;2.25;;;0.82;;
56363;SDS011;42261;52.094;4.326;2023-04-03T10:33:59;2.10;;;0.50;;
56363;SDS011;42261;52.094;4.326;2023-04-03T10:36:51;1.85;;;0.50;;
56363;SDS011;42261;52.094;4.326;2023-04-03T10:42:35;0.88;;;0.28;;
56363;SDS011;42261;52.094;4.326;2023-04-03T10:48:11;0.95;;;0.40;;
56363;SDS011;42261;52.094;4.326;2023-04-03T10:54:05;0.65;;;0.30;;
56363;SDS011;42261;52.094;4.326;2023-04-03T10:56:52;0.82;;;0.35;;
56363;SDS011;42261;52.094;4.326;2023-04-03T10:59:48;0.30;;;0.28;;
56363;SDS011;42261;52.094;4.326;2023-04-03T11:02:55;0.65;;;0.40;;
56363;SDS011;42261;52.094;4.326;2023-04-03T11:05:44;1.60;;;0.50;;
56363;SDS011;42261;52.094;4.326;2023-04-03T11:11:16;0.65;;;0.25;;
56363;SDS011;42261;52.094;4.326;2023-04-03T11:14:02;0.40;;;0.20;;
56363;SDS011;42261;52.094;4.326;2023-04-03T11:16:47;2.30;;;0.40;;
56363;SDS011;42261;52.094;4.326;2023-04-03T11:19:41;0.63;;;0.30;;
56363;SDS011;42261;52.094;4.326;2023-04-03T11:22:32;1.70;;;0.60;;
56363;SDS011;42261;52.094;4.326;2023-04-03T11:25:19;1.58;;;0.30;;
56363;SDS011;42261;52.094;4.326;2023-04-03T11:28:06;0.50;;;0.32;;
56363;SDS011;42261;52.094;4.326;2023-04-03T11:30:59;0.30;;;0.25;;
56363;SDS011;42261;52.094;4.326;2023-04-03T11:36:41;0.47;;;0.30;;
56363;SDS011;42261;52.094;4.326;2023-04-03T11:39:34;1.13;;;0.28;;
56363;SDS011;42261;52.094;4.326;2023-04-03T11:42:38;1.50;;;0.30;;
56363;SDS011;42261;52.094;4.326;2023-04-03T11:57:22;2.25;;;0.40;;
56363;SDS011;42261;52.094;4.326;2023-04-03T12:09:00;0.40;;;0.30;;
56363;SDS011;42261;52.094;4.326;2023-04-03T12:11:44;0.85;;;0.30;;
56363;SDS011;42261;52.094;4.326;2023-04-03T12:14:28;0.38;;;0.20;;
56363;SDS011;42261;52.094;4.326;2023-04-03T12:17:19;0.30;;;0.30;;
56363;SDS011;42261;52.094;4.326;2023-04-03T12:23:08;1.10;;;0.50;;
56363;SDS011;42261;52.094;4.326;2023-04-03T12:26:18;1.40;;;0.32;;
56363;SDS011;42261;52.094;4.326;2023-04-03T12:29:14;0.30;;;0.20;;
56363;SDS011;42261;52.094;4.326;2023-04-03T12:40:48;0.98;;;0.30;;
56363;SDS011;42261;52.094;4.326;2023-04-03T12:46:21;0.93;;;0.30;;
56363;SDS011;42261;52.094;4.326;2023-04-03T12:49:13;0.57;;;0.20;;
56363;SDS011;42261;52.094;4.326;2023-04-03T12:51:58;0.60;;;0.25;;
56363;SDS011;42261;52.094;4.326;2023-04-03T12:54:43;0.30;;;0.20;;
56363;SDS011;42261;52.094;4.326;2023-04-03T12:57:29;0.63;;;0.30;;
56363;SDS011;42261;52.094;4.326;2023-04-03T13:00:30;0.70;;;0.20;;
56363;SDS011;42261;52.094;4.326;2023-04-03T13:03:26;0.20;;;0.20;;
56363;SDS011;42261;52.094;4.326;2023-04-03T13:06:21;0.90;;;0.38;;
56363;SDS011;42261;52.094;4.326;2023-04-03T13:09:06;1.50;;;0.35;;
56363;SDS011;42261;52.094;4.326;2023-04-03T13:14:53;0.28;;;0.20;;
56363;SDS011;42261;52.094;4.326;2023-04-03T13:17:44;0.40;;;0.20;;
56363;SDS011;42261;52.094;4.326;2023-04-03T13:20:29;0.63;;;0.20;;
56363;SDS011;42261;52.094;4.326;2023-04-03T13:23:14;1.58;;;0.30;;
56363;SDS011;42261;52.094;4.326;2023-04-03T13:26:02;1.85;;;0.40;;
56363;SDS011;42261;52.094;4.326;2023-04-03T13:28:47;1.52;;;0.82;;
56363;SDS011;42261;52.094;4.326;2023-04-03T13:31:32;0.40;;;0.20;;
56363;SDS011;42261;52.094;4.326;2023-04-03T13:34:17;1.27;;;0.40;;
56363;SDS011;42261;52.094;4.326;2023-04-03T13:37:03;0.52;;;0.30;;
56363;SDS011;42261;52.094;4.326;2023-04-03T13:39:56;1.70;;;0.50;;
56363;SDS011;42261;52.094;4.326;2023-04-03T13:42:40;0.85;;;0.40;;
56363;SDS011;42261;52.094;4.326;2023-04-03T13:45:26;0.85;;;0.40;;
56363;SDS011;42261;52.094;4.326;2023-04-03T13:48:18;2.83;;;0.50;;
56363;SDS011;42261;52.094;4.326;2023-04-03T13:53:48;1.13;;;0.30;;
56363;SDS011;42261;52.094;4.326;2023-04-03T13:56:36;0.63;;;0.30;;
56363;SDS011;42261;52.094;4.326;2023-04-03T13:59:24;2.50;;;0.73;;
56363;SDS011;42261;52.094;4.326;2023-04-03T14:04:56;3.58;;;0.75;;
56363;SDS011;42261;52.094;4.326;2023-04-03T14:07:43;2.22;;;0.50;;
56363;SDS011;42261;52.094;4.326;2023-04-03T14:10:27;1.40;;;0.50;;
56363;SDS011;42261;52.094;4.326;2023-04-03T14:13:12;1.42;;;0.32;;
56363;SDS011;42261;52.094;4.326;2023-04-03T14:15:57;0.95;;;0.50;;
56363;SDS011;42261;52.094;4.326;2023-04-03T14:18:41;1.20;;;0.70;;
56363;SDS011;42261;52.094;4.326;2023-04-03T14:21:25;1.42;;;0.40;;
56363;SDS011;42261;52.094;4.326;2023-04-03T14:24:10;0.70;;;0.40;;
56363;SDS011;42261;52.094;4.326;2023-04-03T14:26:55;0.50;;;0.40;;
56363;SDS011;42261;52.094;4.326;2023-04-03T14:29:39;0.40;;;0.40;;
56363;SDS011;42261;52.094;4.326;2023-04-03T14:32:24;0.50;;;0.30;;
56363;SDS011;42261;52.094;4.326;2023-04-03T14:35:08;0.85;;;0.43;;
56363;SDS011;42261;52.094;4.326;2023-04-03T14:37:53;1.13;;;0.40;;
56363;SDS011;42261;52.094;4.326;2023-04-03T14:40:37;1.35;;;0.50;;
56363;SDS011;42261;52.094;4.326;2023-04-03T14:43:21;0.77;;;0.40;;
56363;SDS011;42261;52.094;4.326;2023-04-03T14:46:11;1.15;;;0.47;;
56363;SDS011;42261;52.094;4.326;2023-04-03T14:48:55;0.85;;;0.60;;
56363;SDS011;42261;52.094;4.326;2023-04-03T14:51:39;2.15;;;0.52;;
56363;SDS011;42261;52.094;4.326;2023-04-03T14:54:24;4.03;;;0.57;;
56363;SDS011;42261;52.094;4.326;2023-04-03T14:57:12;1.08;;;0.60;;
56363;SDS011;42261;52.094;4.326;2023-04-03T14:59:57;1.15;;;0.55;;
56363;SDS011;42261;52.094;4.326;2023-04-03T15:02:41;3.00;;;0.77;;
56363;SDS011;42261;52.094;4.326;2023-04-03T15:05:26;1.25;;;0.60;;
56363;SDS011;42261;52.094;4.326;2023-04-03T15:08:21;1.75;;;0.30;;
56363;SDS011;42261;52.094;4.326;2023-04-03T15:11:05;5.05;;;0.60;;
56363;SDS011;42261;52.094;4.326;2023-04-03T15:13:50;1.95;;;0.60;;
56363;SDS011;42261;52.094;4.326;2023-04-03T15:16:34;1.35;;;0.43;;
56363;SDS011;42261;52.094;4.326;2023-04-03T15:19:18;2.65;;;0.45;;
56363;SDS011;42261;52.094;4.326;2023-04-03T15:22:02;1.02;;;0.50;;
56363;SDS011;42261;52.094;4.326;2023-04-03T15:24:46;1.05;;;0.60;;
56363;SDS011;42261;52.094;4.326;2023-04-03T15:27:30;1.02;;;0.40;;
56363;SDS011;42261;52.094;4.326;2023-04-03T15:30:16;0.80;;;0.38;;
56363;SDS011;42261;52.094;4.326;2023-04-03T15:33:01;3.92;;;0.70;;
56363;SDS011;42261;52.094;4.326;2023-04-03T15:35:45;0.75;;;0.60;;
56363;SDS011;42261;52.094;4.326;2023-04-03T15:38:29;1.67;;;0.60;;
56363;SDS011;42261;52.094;4.326;2023-04-03T15:41:13;0.82;;;0.40;;
56363;SDS011;42261;52.094;4.326;2023-04-03T15:43:58;0.80;;;0.40;;
56363;SDS011;42261;52.094;4.326;2023-04-03T15:46:43;1.65;;;0.60;;
56363;SDS011;42261;52.094;4.326;2023-04-03T15:49:27;0.90;;;0.40;;
56363;SDS011;42261;52.094;4.326;2023-04-03T15:52:12;4.53;;;0.88;;
56363;SDS011;42261;52.094;4.326;2023-04-03T15:54:56;1.00;;;0.60;;
56363;SDS011;42261;52.094;4.326;2023-04-03T15:57:40;1.02;;;0.52;;
56363;SDS011;42261;52.094;4.326;2023-04-03T16:00:24;1.40;;;0.70;;
56363;SDS011;42261;52.094;4.326;2023-04-03T16:03:09;2.90;;;0.68;;
56363;SDS011;42261;52.094;4.326;2023-04-03T16:05:55;1.23;;;0.63;;
56363;SDS011;42261;52.094;4.326;2023-04-03T16:08:39;1.45;;;0.75;;
56363;SDS011;42261;52.094;4.326;2023-04-03T16:11:24;0.82;;;0.60;;
56363;SDS011;42261;52.094;4.326;2023-04-03T16:14:10;2.45;;;0.60;;
56363;SDS011;42261;52.094;4.326;2023-04-03T16:16:54;1.35;;;0.60;;
56363;SDS011;42261;52.094;4.326;2023-04-03T16:19:38;1.58;;;0.63;;
56363;SDS011;42261;52.094;4.326;2023-04-03T16:22:23;1.08;;;0.40;;
56363;SDS011;42261;52.094;4.326;2023-04-03T16:25:08;2.60;;;0.70;;
56363;SDS011;42261;52.094;4.326;2023-04-03T16:27:52;0.70;;;0.50;;
56363;SDS011;42261;52.094;4.326;2023-04-03T16:30:36;0.98;;;0.60;;
56363;SDS011;42261;52.094;4.326;2023-04-03T16:33:20;0.90;;;0.65;;
56363;SDS011;42261;52.094;4.326;2023-04-03T16:36:06;2.33;;;0.52;;
56363;SDS011;42261;52.094;4.326;2023-04-03T16:38:51;1.30;;;0.70;;
56363;SDS011;42261;52.094;4.326;2023-04-03T16:41:36;4.13;;;0.70;;
56363;SDS011;42261;52.094;4.326;2023-04-03T16:44:20;1.35;;;0.80;;
56363;SDS011;42261;52.094;4.326;2023-04-03T16:47:03;1.02;;;0.77;;
56363;SDS011;42261;52.094;4.326;2023-04-03T16:49:47;1.75;;;0.80;;
56363;SDS011;42261;52.094;4.326;2023-04-03T16:52:31;1.45;;;0.70;;
56363;SDS011;42261;52.094;4.326;2023-04-03T16:55:15;1.65;;;0.60;;
56363;SDS011;42261;52.094;4.326;2023-04-03T16:57:59;2.28;;;0.90;;
56363;SDS011;42261;52.094;4.326;2023-04-03T17:00:45;1.77;;;0.82;;
56363;SDS011;42261;52.094;4.326;2023-04-03T17:03:31;1.88;;;0.50;;
56363;SDS011;42261;52.094;4.326;2023-04-03T17:06:18;0.93;;;0.60;;
56363;SDS011;42261;52.094;4.326;2023-04-03T17:09:04;1.00;;;0.70;;
56363;SDS011;42261;52.094;4.326;2023-04-03T17:11:48;3.85;;;0.80;;
56363;SDS011;42261;52.094;4.326;2023-04-03T17:14:32;1.20;;;0.52;;
56363;SDS011;42261;52.094;4.326;2023-04-03T17:17:18;2.10;;;0.68;;
56363;SDS011;42261;52.094;4.326;2023-04-03T17:20:03;1.27;;;0.43;;
56363;SDS011;42261;52.094;4.326;2023-04-03T17:22:48;2.15;;;0.80;;
56363;SDS011;42261;52.094;4.326;2023-04-03T17:25:32;1.15;;;0.70;;
56363;SDS011;42261;52.094;4.326;2023-04-03T17:28:17;1.52;;;0.70;;
56363;SDS011;42261;52.094;4.326;2023-04-03T17:31:02;0.98;;;0.65;;
56363;SDS011;42261;52.094;4.326;2023-04-03T17:33:46;1.38;;;0.57;;
56363;SDS011;42261;52.094;4.326;2023-04-03T17:36:31;1.40;;;0.68;;
56363;SDS011;42261;52.094;4.326;2023-04-03T17:39:15;2.38;;;0.63;;
56363;SDS011;42261;52.094;4.326;2023-04-03T17:41:59;1.83;;;0.60;;
56363;SDS011;42261;52.094;4.326;2023-04-03T17:44:44;3.88;;;1.23;;
56363;SDS011;42261;52.094;4.326;2023-04-03T17:47:28;1.80;;;0.77;;
56363;SDS011;42261;52.094;4.326;2023-04-03T17:50:12;4.93;;;0.80;;
56363;SDS011;42261;52.094;4.326;2023-04-03T17:52:58;1.60;;;0.60;;
56363;SDS011;42261;52.094;4.326;2023-04-03T17:55:42;1.35;;;0.65;;
56363;SDS011;42261;52.094;4.326;2023-04-03T17:58:26;1.95;;;0.77;;
56363;SDS011;42261;52.094;4.326;2023-04-03T18:01:11;2.95;;;0.70;;
56363;SDS011;42261;52.094;4.326;2023-04-03T18:03:57;1.10;;;0.60;;